Time;durP1;ratioP1;P1;durP2;ratioP2;P2;SDS_P1;SDS_P2;PMS_P1;PMS_P2;Temp;Humidity;BMP_temperature;BMP_pressure;BME280_temperature;BME280_humidity;BME280_pressure;Samples;Min_cycle;Max_cycle;Signal;HPM_P1;HPM_P2
2023/06/16 00:01:41;;;;;;;3.75;1.80;;;;;;;;;;5016538;28;20045;-89
2023/06/16 00:04:07;;;;;;;4.95;1.23;;;;;;;;;;5033342;28;20071;-89
2023/06/16 00:06:33;;;;;;;2.10;1.45;;;;;;;;;;5016825;28;20048;-89
2023/06/16 00:09:03;;;;;;;2.97;1.55;;;;;;;;;;5032622;28;20045;-89
2023/06/16 00:11:29;;;;;;;2.67;1.90;;;;;;;;;;5034223;28;20049;-89
2023/06/16 00:13:56;;;;;;;2.92;1.77;;;;;;;;;;5036581;28;20053;-89
2023/06/16 00:16:23;;;;;;;2.65;2.33;;;;;;;;;;5021855;28;20042;-89
2023/06/16 00:18:51;;;;;;;5.15;2.13;;;;;;;;;;5025675;28;20045;-89
2023/06/16 00:21:37;;;;;;;6.43;2.05;;;;;;;;;;5036389;28;20116;-88
2023/06/16 00:24:04;;;;;;;3.55;1.60;;;;;;;;;;5045348;28;20106;-89
2023/06/16 00:26:30;;;;;;;3.58;2.35;;;;;;;;;;5019398;28;20057;-89
2023/06/16 00:28:56;;;;;;;2.88;1.70;;;;;;;;;;5019326;28;20056;-89
2023/06/16 00:31:22;;;;;;;2.10;1.90;;;;;;;;;;5019197;28;20052;-89
2023/06/16 00:33:48;;;;;;;3.00;1.95;;;;;;;;;;5035177;28;20493;-89
2023/06/16 00:36:14;;;;;;;4.00;2.28;;;;;;;;;;5018594;28;20409;-89
2023/06/16 00:38:40;;;;;;;4.97;2.15;;;;;;;;;;5035222;28;20133;-89
2023/06/16 00:41:06;;;;;;;2.83;2.28;;;;;;;;;;5034841;28;20080;-89
2023/06/16 00:43:33;;;;;;;3.92;2.20;;;;;;;;;;5035253;28;20132;-89
2023/06/16 00:45:59;;;;;;;2.30;2.05;;;;;;;;;;5018865;28;20045;-89
2023/06/16 00:48:25;;;;;;;6.05;2.25;;;;;;;;;;5018669;28;20521;-88
2023/06/16 00:50:51;;;;;;;2.38;2.17;;;;;;;;;;5019771;28;20045;-89
2023/06/16 00:53:17;;;;;;;3.80;2.30;;;;;;;;;;5020734;28;20049;-89
2023/06/16 00:55:46;;;;;;;4.38;2.25;;;;;;;;;;5020540;28;20136;-88
2023/06/16 00:58:12;;;;;;;2.53;2.35;;;;;;;;;;5037230;28;20100;-89
2023/06/16 01:00:38;;;;;;;2.60;2.40;;;;;;;;;;5036428;28;20046;-89
2023/06/16 01:03:04;;;;;;;3.03;2.47;;;;;;;;;;5034651;28;20107;-89
2023/06/16 01:05:31;;;;;;;3.65;2.58;;;;;;;;;;5018195;28;20045;-89
2023/06/16 01:08:17;;;;;;;5.40;2.90;;;;;;;;;;5034633;28;20041;-88
2023/06/16 01:10:56;;;;;;;4.25;2.60;;;;;;;;;;5034935;28;20132;-89
2023/06/16 01:13:25;;;;;;;4.10;3.00;;;;;;;;;;5018165;28;20060;-89
2023/06/16 01:15:51;;;;;;;5.75;2.75;;;;;;;;;;5017730;28;20048;-89
2023/06/16 01:18:22;;;;;;;3.08;2.88;;;;;;;;;;5018161;28;20367;-89
2023/06/16 01:20:55;;;;;;;3.28;3.05;;;;;;;;;;5035081;28;20446;-89
2023/06/16 01:23:40;;;;;;;2.90;2.75;;;;;;;;;;5033686;28;20376;-89
2023/06/16 01:26:07;;;;;;;3.33;2.97;;;;;;;;;;5034415;28;20053;-89
2023/06/16 01:28:34;;;;;;;3.42;3.13;;;;;;;;;;5018034;28;20049;-89
2023/06/16 01:31:01;;;;;;;3.50;2.83;;;;;;;;;;5034293;28;20045;-89
2023/06/16 01:33:30;;;;;;;5.63;3.60;;;;;;;;;;5017675;28;20053;-88
2023/06/16 01:35:57;;;;;;;5.05;3.40;;;;;;;;;;5034592;28;20398;-89
2023/06/16 01:38:23;;;;;;;3.40;2.63;;;;;;;;;;5033862;28;20056;-89
2023/06/16 01:40:53;;;;;;;3.35;3.08;;;;;;;;;;5017175;28;20490;-89
2023/06/16 01:43:20;;;;;;;3.22;2.92;;;;;;;;;;5017415;28;20054;-88
2023/06/16 01:45:47;;;;;;;2.95;2.75;;;;;;;;;;5033908;28;20045;-88
2023/06/16 01:48:13;;;;;;;3.10;2.90;;;;;;;;;;5017371;28;20140;-89
2023/06/16 01:50:39;;;;;;;2.97;2.50;;;;;;;;;;5033557;28;20049;-89
2023/06/16 01:53:06;;;;;;;3.55;3.22;;;;;;;;;;5033335;28;20477;-88
2023/06/16 01:55:32;;;;;;;3.88;3.38;;;;;;;;;;5017437;28;20073;-89
2023/06/16 01:57:58;;;;;;;2.88;2.67;;;;;;;;;;5016720;28;20049;-88
2023/06/16 02:00:27;;;;;;;4.07;3.45;;;;;;;;;;5033696;28;20041;-89
2023/06/16 02:02:55;;;;;;;3.88;3.20;;;;;;;;;;5033935;28;20048;-88
2023/06/16 02:05:24;;;;;;;3.00;2.80;;;;;;;;;;5033787;28;20128;-89
2023/06/16 02:07:51;;;;;;;3.88;3.15;;;;;;;;;;5032892;28;20486;-88
2023/06/16 02:10:18;;;;;;;3.88;3.58;;;;;;;;;;5033440;28;20045;-89
2023/06/16 02:12:45;;;;;;;4.25;3.85;;;;;;;;;;5016965;28;20150;-89
2023/06/16 02:15:11;;;;;;;4.15;3.22;;;;;;;;;;5034578;28;20179;-88
2023/06/16 02:17:44;;;;;;;4.00;3.70;;;;;;;;;;5034170;28;20052;-88
2023/06/16 02:20:10;;;;;;;4.72;4.38;;;;;;;;;;5033437;28;20138;-88
2023/06/16 02:22:36;;;;;;;4.05;3.63;;;;;;;;;;5034169;28;20134;-88
2023/06/16 02:25:02;;;;;;;4.82;3.53;;;;;;;;;;5000668;28;20064;-88
2023/06/16 02:27:28;;;;;;;4.55;4.25;;;;;;;;;;5016683;28;20053;-88
2023/06/16 02:29:54;;;;;;;3.80;3.50;;;;;;;;;;5033062;28;20053;-88
2023/06/16 02:32:20;;;;;;;4.93;4.10;;;;;;;;;;5016913;28;20115;-88
2023/06/16 02:34:46;;;;;;;4.25;3.90;;;;;;;;;;5015388;28;20046;-88
2023/06/16 02:37:13;;;;;;;4.57;4.20;;;;;;;;;;5000079;28;20075;-88
2023/06/16 02:39:39;;;;;;;3.85;3.55;;;;;;;;;;5032674;28;20049;-88
2023/06/16 02:42:06;;;;;;;5.45;4.47;;;;;;;;;;5033839;28;20060;-88
2023/06/16 02:44:32;;;;;;;4.93;4.25;;;;;;;;;;5032924;28;20045;-88
2023/06/16 02:46:58;;;;;;;4.85;4.40;;;;;;;;;;5032385;28;20053;-88
2023/06/16 02:49:26;;;;;;;5.07;4.65;;;;;;;;;;5016368;28;20129;-87
2023/06/16 02:51:52;;;;;;;5.13;4.82;;;;;;;;;;5033813;28;20056;-88
2023/06/16 02:54:18;;;;;;;5.45;4.95;;;;;;;;;;5032619;28;20050;-88
2023/06/16 02:56:44;;;;;;;6.55;6.05;;;;;;;;;;5033766;28;20049;-88
2023/06/16 02:59:10;;;;;;;5.57;5.07;;;;;;;;;;5016511;28;20045;-88
2023/06/16 03:01:37;;;;;;;5.57;5.05;;;;;;;;;;5032318;28;20053;-88
2023/06/16 03:04:03;;;;;;;5.85;5.35;;;;;;;;;;5032673;28;20552;-88
2023/06/16 03:06:34;;;;;;;6.30;4.97;;;;;;;;;;5015759;28;20103;-88
2023/06/16 03:09:00;;;;;;;5.13;4.72;;;;;;;;;;5016305;28;20058;-88
2023/06/16 03:11:26;;;;;;;7.32;5.55;;;;;;;;;;5032346;28;20132;-88
2023/06/16 03:13:52;;;;;;;5.20;4.80;;;;;;;;;;5032657;28;20128;-88
2023/06/16 03:16:20;;;;;;;5.30;4.85;;;;;;;;;;5016257;28;20517;-88
2023/06/16 03:18:47;;;;;;;5.68;5.28;;;;;;;;;;5016322;28;20371;-88
2023/06/16 03:21:16;;;;;;;5.72;5.28;;;;;;;;;;5016174;28;20053;-88
2023/06/16 03:23:43;;;;;;;6.18;5.38;;;;;;;;;;5032662;28;20115;-88
2023/06/16 03:26:10;;;;;;;5.88;5.38;;;;;;;;;;5032300;28;20129;-87
2023/06/16 03:28:36;;;;;;;5.82;5.38;;;;;;;;;;5016785;28;20060;-88
2023/06/16 03:31:02;;;;;;;5.90;5.43;;;;;;;;;;5016169;28;20144;-88
2023/06/16 03:33:31;;;;;;;5.45;5.10;;;;;;;;;;4999762;28;20053;-89
2023/06/16 03:35:57;;;;;;;6.15;5.47;;;;;;;;;;5015896;28;20046;-88
2023/06/16 03:38:23;;;;;;;5.88;5.47;;;;;;;;;;5032627;28;20046;-88
2023/06/16 03:40:49;;;;;;;6.50;5.90;;;;;;;;;;5032682;28;20494;-88
2023/06/16 03:43:15;;;;;;;5.32;4.93;;;;;;;;;;5000127;28;20053;-88
2023/06/16 03:45:41;;;;;;;5.80;5.43;;;;;;;;;;5016988;28;20049;-88
2023/06/16 03:48:07;;;;;;;6.28;5.68;;;;;;;;;;5036309;28;20115;-89
2023/06/16 03:50:33;;;;;;;6.15;5.55;;;;;;;;;;5035977;28;20505;-89
2023/06/16 03:53:00;;;;;;;6.20;5.70;;;;;;;;;;5037003;28;20111;-89
2023/06/16 03:55:26;;;;;;;6.40;5.90;;;;;;;;;;5019223;28;20073;-88
2023/06/16 03:57:52;;;;;;;6.93;6.28;;;;;;;;;;5036821;28;20072;-88
2023/06/16 04:00:18;;;;;;;6.85;6.32;;;;;;;;;;5036839;28;20041;-88
2023/06/16 04:02:44;;;;;;;6.45;6.00;;;;;;;;;;5035897;28;20128;-88
2023/06/16 04:05:10;;;;;;;6.70;6.10;;;;;;;;;;5036501;28;20046;-89
2023/06/16 04:07:37;;;;;;;7.22;6.80;;;;;;;;;;5035671;28;20473;-88
2023/06/16 04:10:04;;;;;;;6.38;5.97;;;;;;;;;;5035703;28;20489;-88
2023/06/16 04:12:30;;;;;;;7.70;6.90;;;;;;;;;;5036772;28;20042;-89
2023/06/16 04:14:56;;;;;;;7.85;7.18;;;;;;;;;;5018961;28;20474;-88
2023/06/16 04:17:23;;;;;;;9.48;7.35;;;;;;;;;;5036827;28;20132;-88
2023/06/16 04:19:49;;;;;;;7.45;6.97;;;;;;;;;;5034677;28;20084;-88
2023/06/16 04:22:16;;;;;;;8.05;7.35;;;;;;;;;;5035694;28;20474;-89
2023/06/16 04:24:42;;;;;;;7.45;6.38;;;;;;;;;;5035389;28;20504;-89
2023/06/16 04:27:08;;;;;;;8.50;7.80;;;;;;;;;;5036051;28;20061;-89
2023/06/16 04:29:41;;;;;;;7.53;6.93;;;;;;;;;;5036460;28;20521;-88
2023/06/16 04:32:10;;;;;;;7.35;6.65;;;;;;;;;;5019098;28;20053;-88
2023/06/16 04:34:36;;;;;;;7.65;7.07;;;;;;;;;;5018505;28;20086;-89
2023/06/16 04:37:03;;;;;;;8.02;7.13;;;;;;;;;;5036159;28;20052;-89
2023/06/16 04:39:29;;;;;;;8.65;7.85;;;;;;;;;;5018991;28;20042;-89
2023/06/16 04:41:55;;;;;;;8.77;7.93;;;;;;;;;;5035107;28;20128;-89
2023/06/16 04:44:22;;;;;;;8.98;8.05;;;;;;;;;;5019235;28;20053;-89
2023/06/16 04:46:48;;;;;;;8.70;7.80;;;;;;;;;;5035743;28;20119;-88
2023/06/16 04:49:14;;;;;;;8.73;7.97;;;;;;;;;;5018884;28;20056;-89
2023/06/16 04:51:40;;;;;;;8.93;7.90;;;;;;;;;;5018821;28;20490;-89
2023/06/16 04:54:09;;;;;;;8.25;7.57;;;;;;;;;;5036153;28;20081;-89
2023/06/16 04:56:35;;;;;;;9.00;8.30;;;;;;;;;;5019679;28;20053;-89
2023/06/16 04:59:02;;;;;;;8.07;7.57;;;;;;;;;;5035667;28;20375;-89
2023/06/16 05:01:28;;;;;;;9.68;8.77;;;;;;;;;;5037626;28;20049;-89
2023/06/16 05:03:55;;;;;;;9.13;8.45;;;;;;;;;;5053112;28;20049;-88
2023/06/16 05:06:21;;;;;;;9.35;8.68;;;;;;;;;;5019962;28;20144;-89
2023/06/16 05:08:47;;;;;;;9.75;8.75;;;;;;;;;;5018123;28;20064;-89
2023/06/16 05:11:13;;;;;;;9.70;8.88;;;;;;;;;;5034349;28;20565;-88
2023/06/16 05:13:39;;;;;;;9.40;8.68;;;;;;;;;;5034515;28;20085;-88
2023/06/16 05:16:05;;;;;;;10.02;9.23;;;;;;;;;;5017900;28;20085;-88
2023/06/16 05:18:31;;;;;;;10.90;9.90;;;;;;;;;;5035852;28;20052;-89
2023/06/16 05:20:57;;;;;;;9.40;8.63;;;;;;;;;;5017983;28;20049;-88
2023/06/16 05:23:24;;;;;;;9.85;9.05;;;;;;;;;;5017850;28;20056;-88
2023/06/16 05:25:50;;;;;;;10.15;9.43;;;;;;;;;;5018096;28;20064;-88
2023/06/16 05:28:16;;;;;;;11.15;10.15;;;;;;;;;;5033926;28;20513;-88
2023/06/16 05:30:42;;;;;;;10.50;9.65;;;;;;;;;;5035259;28;20057;-88
2023/06/16 05:33:08;;;;;;;10.65;9.75;;;;;;;;;;5033646;28;20060;-87
2023/06/16 05:35:36;;;;;;;10.88;9.95;;;;;;;;;;5033392;28;20057;-88
2023/06/16 05:38:02;;;;;;;10.35;9.65;;;;;;;;;;5033981;28;20144;-87
2023/06/16 05:40:28;;;;;;;10.68;9.70;;;;;;;;;;5017503;28;20049;-88
2023/06/16 05:42:54;;;;;;;11.52;10.45;;;;;;;;;;5033690;28;20136;-88
2023/06/16 05:45:20;;;;;;;9.52;8.98;;;;;;;;;;5033580;28;20060;-88
2023/06/16 05:47:46;;;;;;;10.70;9.80;;;;;;;;;;5017485;28;20049;-88
2023/06/16 05:50:12;;;;;;;9.70;9.00;;;;;;;;;;5034754;28;20049;-87
2023/06/16 05:52:38;;;;;;;9.55;8.85;;;;;;;;;;5033825;28;20140;-87
2023/06/16 05:55:05;;;;;;;10.98;9.98;;;;;;;;;;5000714;28;20045;-88
2023/06/16 05:57:31;;;;;;;10.73;9.75;;;;;;;;;;5017314;28;20049;-88
2023/06/16 05:59:57;;;;;;;10.35;9.60;;;;;;;;;;5033627;28;20445;-88
2023/06/16 06:02:24;;;;;;;11.70;10.68;;;;;;;;;;5033681;28;20095;-88
2023/06/16 06:04:51;;;;;;;11.68;10.77;;;;;;;;;;5017309;28;20091;-88
2023/06/16 06:07:17;;;;;;;10.85;9.75;;;;;;;;;;5035076;28;20088;-89
2023/06/16 06:09:43;;;;;;;12.77;11.68;;;;;;;;;;5033701;28;20050;-89
2023/06/16 06:12:11;;;;;;;11.43;10.52;;;;;;;;;;5033558;28;20056;-88
2023/06/16 06:14:37;;;;;;;10.88;9.98;;;;;;;;;;5016883;28;20046;-88
2023/06/16 06:17:03;;;;;;;11.80;10.65;;;;;;;;;;5033319;28;20478;-88
2023/06/16 06:19:29;;;;;;;10.98;10.15;;;;;;;;;;5033490;28;20060;-88
2023/06/16 06:21:55;;;;;;;10.50;9.70;;;;;;;;;;5000819;28;20060;-88
2023/06/16 06:24:21;;;;;;;11.02;10.05;;;;;;;;;;5017193;28;20049;-88
2023/06/16 06:26:48;;;;;;;10.73;9.93;;;;;;;;;;5032971;28;20560;-88
2023/06/16 06:29:15;;;;;;;10.95;10.13;;;;;;;;;;5034541;28;20091;-89
2023/06/16 06:31:41;;;;;;;9.95;9.35;;;;;;;;;;5034022;28;20045;-88
2023/06/16 06:34:10;;;;;;;11.10;10.07;;;;;;;;;;5017024;28;20088;-88
2023/06/16 06:36:36;;;;;;;11.40;10.48;;;;;;;;;;5032543;28;20053;-87
2023/06/16 06:39:02;;;;;;;10.35;9.50;;;;;;;;;;5016648;28;20433;-88
2023/06/16 06:41:29;;;;;;;11.38;9.05;;;;;;;;;;5033508;28;20107;-88
2023/06/16 06:43:55;;;;;;;15.23;9.15;;;;;;;;;;5032927;28;20045;-88
2023/06/16 06:46:21;;;;;;;10.77;9.65;;;;;;;;;;5033218;28;20487;-88
2023/06/16 06:48:47;;;;;;;10.32;9.00;;;;;;;;;;5032785;28;20046;-88
2023/06/16 06:51:13;;;;;;;9.35;8.65;;;;;;;;;;5033189;28;20095;-88
2023/06/16 06:53:40;;;;;;;8.32;7.72;;;;;;;;;;5016401;28;20053;-88
2023/06/16 06:56:06;;;;;;;8.60;8.00;;;;;;;;;;5016112;28;20049;-88
2023/06/16 06:58:35;;;;;;;8.65;8.05;;;;;;;;;;5032680;28;20045;-88
2023/06/16 07:01:01;;;;;;;9.75;8.75;;;;;;;;;;5016310;28;20045;-88
2023/06/16 07:03:28;;;;;;;8.57;7.97;;;;;;;;;;5033245;28;20057;-88
2023/06/16 07:05:54;;;;;;;9.38;8.63;;;;;;;;;;4999864;28;20053;-89
2023/06/16 07:08:20;;;;;;;7.75;7.30;;;;;;;;;;5032989;28;20045;-89
2023/06/16 07:10:46;;;;;;;7.88;7.18;;;;;;;;;;5016128;28;20058;-89
2023/06/16 07:13:12;;;;;;;7.53;6.85;;;;;;;;;;5033300;28;20103;-89
2023/06/16 07:15:38;;;;;;;7.53;6.93;;;;;;;;;;5032969;28;20053;-89
2023/06/16 07:18:05;;;;;;;8.30;7.70;;;;;;;;;;5000270;28;20562;-89
2023/06/16 07:20:31;;;;;;;8.38;7.68;;;;;;;;;;5000996;28;20080;-90
2023/06/16 07:22:57;;;;;;;8.15;7.47;;;;;;;;;;5020317;28;20382;-89
2023/06/16 07:25:23;;;;;;;7.22;6.75;;;;;;;;;;5020963;28;20049;-90
2023/06/16 07:27:49;;;;;;;8.27;7.30;;;;;;;;;;5020514;28;20054;-90
2023/06/16 07:30:15;;;;;;;7.28;6.78;;;;;;;;;;5037706;28;20060;-89
2023/06/16 07:32:42;;;;;;;7.18;6.57;;;;;;;;;;5036302;28;20045;-89
2023/06/16 07:35:08;;;;;;;4.72;4.47;;;;;;;;;;5036161;28;20425;-88
2023/06/16 07:37:34;;;;;;;5.32;4.88;;;;;;;;;;5036852;28;20056;-88
2023/06/16 07:40:00;;;;;;;4.63;4.30;;;;;;;;;;5036122;28;20445;-88
2023/06/16 07:42:27;;;;;;;4.10;3.70;;;;;;;;;;5019795;28;20072;-88
2023/06/16 07:44:53;;;;;;;4.47;4.07;;;;;;;;;;5019515;28;20042;-88
2023/06/16 07:47:19;;;;;;;4.10;3.80;;;;;;;;;;5019648;28;20048;-87
2023/06/16 07:49:45;;;;;;;4.35;4.05;;;;;;;;;;5036145;28;20046;-88
2023/06/16 07:52:13;;;;;;;3.95;3.75;;;;;;;;;;5036082;28;20100;-88
2023/06/16 07:54:42;;;;;;;4.43;4.13;;;;;;;;;;5035933;28;20056;-88
2023/06/16 07:57:08;;;;;;;3.60;3.30;;;;;;;;;;5019470;28;20049;-88
2023/06/16 07:59:34;;;;;;;5.55;3.75;;;;;;;;;;5003306;28;20471;-88
2023/06/16 08:02:03;;;;;;;4.88;3.00;;;;;;;;;;5019032;28;20140;-88
2023/06/16 08:04:29;;;;;;;4.93;4.50;;;;;;;;;;5018945;28;20053;-89
2023/06/16 08:06:57;;;;;;;5.18;4.68;;;;;;;;;;5035949;28;20098;-89
2023/06/16 08:09:25;;;;;;;5.05;4.60;;;;;;;;;;5035883;28;20091;-89
2023/06/16 08:11:53;;;;;;;5.78;4.63;;;;;;;;;;5036361;28;20391;-89
2023/06/16 08:14:19;;;;;;;5.45;4.70;;;;;;;;;;5003143;28;20049;-90
2023/06/16 08:16:45;;;;;;;4.88;4.40;;;;;;;;;;5036734;28;20052;-90
2023/06/16 08:19:12;;;;;;;5.00;4.60;;;;;;;;;;5036017;28;20068;-89
2023/06/16 08:21:38;;;;;;;4.45;4.18;;;;;;;;;;5002863;28;20048;-89
2023/06/16 08:24:05;;;;;;;6.97;4.20;;;;;;;;;;5035650;28;20136;-90
2023/06/16 08:26:31;;;;;;;5.90;4.90;;;;;;;;;;5035831;28;20144;-90
2023/06/16 08:28:57;;;;;;;5.28;4.47;;;;;;;;;;5036648;28;20049;-90
2023/06/16 08:31:23;;;;;;;5.80;5.32;;;;;;;;;;5003048;28;20474;-89
2023/06/16 08:33:54;;;;;;;4.80;4.40;;;;;;;;;;5037022;28;20049;-90
2023/06/16 08:36:21;;;;;;;4.25;3.95;;;;;;;;;;5035432;28;20045;-90
2023/06/16 08:38:48;;;;;;;3.92;3.60;;;;;;;;;;5035881;28;20049;-90
2023/06/16 08:41:16;;;;;;;10.05;4.50;;;;;;;;;;5037411;28;20049;-90
2023/06/16 08:43:43;;;;;;;4.80;4.40;;;;;;;;;;5019376;28;20499;-90
2023/06/16 08:46:10;;;;;;;4.30;4.05;;;;;;;;;;5035755;28;20398;-90
2023/06/16 08:48:37;;;;;;;4.07;3.78;;;;;;;;;;5035586;28;20053;-90
2023/06/16 08:51:04;;;;;;;4.10;3.90;;;;;;;;;;5019383;28;20142;-90
2023/06/16 08:53:33;;;;;;;3.80;3.58;;;;;;;;;;5036615;28;20068;-92
2023/06/16 08:56:00;;;;;;;4.68;4.38;;;;;;;;;;5019533;28;20057;-90
2023/06/16 08:58:27;;;;;;;5.15;3.63;;;;;;;;;;5019289;28;20398;-89
2023/06/16 09:00:53;;;;;;;5.50;3.90;;;;;;;;;;5019401;28;20080;-91
2023/06/16 09:03:21;;;;;;;5.00;4.22;;;;;;;;;;5002857;28;20071;-90
2023/06/16 09:05:51;;;;;;;4.75;3.75;;;;;;;;;;5034794;28;20092;-91
2023/06/16 09:08:17;;;;;;;2.95;2.22;;;;;;;;;;5036040;28;20059;-90
2023/06/16 09:10:43;;;;;;;2.47;2.38;;;;;;;;;;5035215;28;20500;-91
2023/06/16 09:13:15;;;;;;;2.75;2.55;;;;;;;;;;5019027;28;20095;-92
2023/06/16 09:15:42;;;;;;;3.20;2.92;;;;;;;;;;5037081;28;20045;-92
2023/06/16 09:18:09;;;;;;;2.70;2.50;;;;;;;;;;5008463;28;20056;-89
2023/06/16 09:20:38;;;;;;;2.55;2.35;;;;;;;;;;5038337;28;20053;-91
2023/06/16 09:23:05;;;;;;;4.95;2.58;;;;;;;;;;5019700;28;20132;-91
2023/06/16 09:25:35;;;;;;;2.75;2.55;;;;;;;;;;5035458;28;20053;-91
2023/06/16 09:28:09;;;;;;;2.47;2.10;;;;;;;;;;5019431;28;20061;-92
2023/06/16 09:30:35;;;;;;;3.00;2.80;;;;;;;;;;5020077;28;20061;-90
2023/06/16 09:33:01;;;;;;;3.60;2.75;;;;;;;;;;5036574;28;20053;-91
2023/06/16 09:35:28;;;;;;;3.08;2.45;;;;;;;;;;5019692;28;20059;-92
2023/06/16 09:37:59;;;;;;;3.72;2.28;;;;;;;;;;5021335;28;20041;-93
2023/06/16 09:40:27;;;;;;;3.95;2.38;;;;;;;;;;5045897;28;20113;-91
2023/06/16 09:42:53;;;;;;;4.32;3.10;;;;;;;;;;5039609;28;20049;-92
2023/06/16 09:45:22;;;;;;;3.58;2.35;;;;;;;;;;5050936;28;20196;-92
2023/06/16 09:47:49;;;;;;;5.22;2.72;;;;;;;;;;5037853;28;20047;-94
2023/06/16 09:50:16;;;;;;;2.60;2.40;;;;;;;;;;5037763;28;20076;-91
2023/06/16 09:52:43;;;;;;;3.03;2.88;;;;;;;;;;5035131;28;20120;-93
2023/06/16 09:55:11;;;;;;;2.70;2.50;;;;;;;;;;5035692;28;20038;-95
2023/06/16 09:57:47;;;;;;;3.80;2.50;;;;;;;;;;5035323;28;20045;-94
2023/06/16 10:00:17;;;;;;;3.17;2.50;;;;;;;;;;5036268;28;20436;-93
2023/06/16 10:02:43;;;;;;;2.92;2.20;;;;;;;;;;5036154;28;20049;-92
2023/06/16 10:05:11;;;;;;;2.13;2.00;;;;;;;;;;5018425;28;20041;-93
2023/06/16 10:07:38;;;;;;;2.13;1.92;;;;;;;;;;5037289;28;20053;-94
2023/06/16 10:10:05;;;;;;;2.75;2.00;;;;;;;;;;5036408;28;20136;-92
2023/06/16 10:12:34;;;;;;;2.30;1.70;;;;;;;;;;5036088;28;20053;-91
2023/06/16 10:15:01;;;;;;;2.95;1.70;;;;;;;;;;5019538;28;20045;-92
2023/06/16 10:17:28;;;;;;;1.73;1.63;;;;;;;;;;5019794;28;20168;-93
2023/06/16 10:19:55;;;;;;;1.95;1.75;;;;;;;;;;5018858;28;20049;-91
2023/06/16 10:22:22;;;;;;;3.03;2.25;;;;;;;;;;5035952;28;20046;-94
2023/06/16 10:24:48;;;;;;;1.70;1.48;;;;;;;;;;5019260;28;20060;-93
2023/06/16 10:27:15;;;;;;;2.03;1.92;;;;;;;;;;5002170;28;20053;-93
2023/06/16 10:29:42;;;;;;;2.17;1.80;;;;;;;;;;5035257;28;20052;-94
2023/06/16 10:32:10;;;;;;;2.15;2.05;;;;;;;;;;5019344;28;20119;-92
2023/06/16 10:34:46;;;;;;;2.00;1.80;;;;;;;;;;5034226;28;20112;-87
2023/06/16 10:37:21;;;;;;;1.95;1.85;;;;;;;;;;5035089;28;20496;-95
2023/06/16 10:39:47;;;;;;;2.45;2.10;;;;;;;;;;5018933;28;20107;-92
2023/06/16 10:42:14;;;;;;;2.47;1.70;;;;;;;;;;5034794;28;20045;-92
2023/06/16 10:44:42;;;;;;;2.53;1.88;;;;;;;;;;5034813;28;20057;-93
2023/06/16 10:47:14;;;;;;;3.65;2.03;;;;;;;;;;5017430;28;20482;-92
2023/06/16 10:49:51;;;;;;;4.07;1.45;;;;;;;;;;5017892;28;20505;-91
2023/06/16 10:52:17;;;;;;;1.52;1.42;;;;;;;;;;5017528;28;20060;-91
2023/06/16 10:54:44;;;;;;;3.58;1.42;;;;;;;;;;5016826;28;20053;-90
2023/06/16 10:57:12;;;;;;;2.75;1.77;;;;;;;;;;5034480;28;20490;-93
2023/06/16 10:59:57;;;;;;;1.75;1.45;;;;;;;;;;5034268;28;20512;-92
2023/06/16 11:02:33;;;;;;;1.58;1.48;;;;;;;;;;5033803;28;20053;-93
2023/06/16 11:05:08;;;;;;;2.17;1.60;;;;;;;;;;5015997;28;20473;-90
2023/06/16 11:07:39;;;;;;;2.08;1.67;;;;;;;;;;5016764;28;20068;-90
2023/06/16 11:10:06;;;;;;;2.78;1.80;;;;;;;;;;5033447;28;20041;-90
2023/06/16 11:12:32;;;;;;;1.98;1.80;;;;;;;;;;5032612;28;20066;-90
2023/06/16 11:14:59;;;;;;;4.55;1.63;;;;;;;;;;5032889;28;20047;-88
2023/06/16 11:17:25;;;;;;;2.28;1.20;;;;;;;;;;5032792;28;20091;-89
2023/06/16 11:19:55;;;;;;;1.48;1.23;;;;;;;;;;5016254;28;20076;-89
2023/06/16 11:22:28;;;;;;;1.40;1.10;;;;;;;;;;5033654;28;20152;-88
2023/06/16 11:24:55;;;;;;;2.15;0.90;;;;;;;;;;5032887;28;20124;-91
2023/06/16 11:27:21;;;;;;;2.03;1.05;;;;;;;;;;5016425;28;20057;-90
2023/06/16 11:29:48;;;;;;;1.90;1.05;;;;;;;;;;5000218;28;20464;-92
2023/06/16 11:32:16;;;;;;;3.28;1.75;;;;;;;;;;5016355;28;20054;-89
2023/06/16 11:34:42;;;;;;;1.30;0.90;;;;;;;;;;5031974;28;20048;-90
2023/06/16 11:37:08;;;;;;;4.18;0.93;;;;;;;;;;5033508;28;20045;-91
2023/06/16 11:39:44;;;;;;;1.40;0.88;;;;;;;;;;5017080;28;20049;-89
2023/06/16 11:42:14;;;;;;;3.03;1.13;;;;;;;;;;5032736;28;20136;-89
2023/06/16 11:44:45;;;;;;;2.78;0.88;;;;;;;;;;5032448;28;20068;-89
2023/06/16 11:47:12;;;;;;;2.85;1.13;;;;;;;;;;5032718;28;20150;-90
2023/06/16 11:49:38;;;;;;;1.30;0.98;;;;;;;;;;5032419;28;20052;-89
2023/06/16 11:52:05;;;;;;;2.00;0.82;;;;;;;;;;5032474;28;20050;-88
2023/06/16 11:54:31;;;;;;;1.70;1.00;;;;;;;;;;5032275;28;20097;-89
2023/06/16 11:56:59;;;;;;;2.75;0.70;;;;;;;;;;5032181;28;20045;-89
2023/06/16 11:59:28;;;;;;;1.63;0.90;;;;;;;;;;5016096;28;20049;-89
2023/06/16 12:01:56;;;;;;;1.50;0.90;;;;;;;;;;5033129;28;20089;-88
2023/06/16 12:04:22;;;;;;;4.10;0.90;;;;;;;;;;5032442;28;20045;-88
2023/06/16 12:06:48;;;;;;;1.42;0.90;;;;;;;;;;5034246;28;20103;-89
2023/06/16 12:09:17;;;;;;;2.92;1.05;;;;;;;;;;5020113;28;20103;-90
2023/06/16 12:11:46;;;;;;;2.80;0.85;;;;;;;;;;5003733;28;20089;-88
2023/06/16 12:14:16;;;;;;;1.90;0.70;;;;;;;;;;5037303;28;20132;-89
2023/06/16 12:16:43;;;;;;;1.73;0.80;;;;;;;;;;5019679;28;20049;-90
2023/06/16 12:19:09;;;;;;;2.40;0.80;;;;;;;;;;5019287;28;20127;-89
2023/06/16 12:21:35;;;;;;;1.40;0.73;;;;;;;;;;5035849;28;20053;-91
2023/06/16 12:24:02;;;;;;;1.35;0.82;;;;;;;;;;5035819;28;20114;-90
2023/06/16 12:26:29;;;;;;;1.15;0.80;;;;;;;;;;5035570;28;20500;-91
2023/06/16 12:28:55;;;;;;;1.25;1.15;;;;;;;;;;5035725;28;20489;-91
2023/06/16 12:31:22;;;;;;;3.28;0.80;;;;;;;;;;5035565;28;20060;-89
2023/06/16 12:33:52;;;;;;;2.70;1.08;;;;;;;;;;5019428;28;20041;-90
2023/06/16 12:36:18;;;;;;;3.17;0.65;;;;;;;;;;5035174;28;20387;-90
2023/06/16 12:38:44;;;;;;;2.70;0.90;;;;;;;;;;5035709;28;20049;-90
2023/06/16 12:41:14;;;;;;;1.15;0.98;;;;;;;;;;5036000;28;20056;-91
2023/06/16 12:43:50;;;;;;;1.05;0.70;;;;;;;;;;5018747;28;20501;-91
2023/06/16 12:46:17;;;;;;;0.80;0.63;;;;;;;;;;5019198;28;20134;-89
2023/06/16 12:48:43;;;;;;;3.30;0.60;;;;;;;;;;5035503;28;20505;-91
2023/06/16 12:51:10;;;;;;;1.20;0.60;;;;;;;;;;5018512;28;20053;-88
2023/06/16 12:53:41;;;;;;;2.33;0.60;;;;;;;;;;5018483;28;20145;-91
2023/06/16 12:56:09;;;;;;;1.88;0.60;;;;;;;;;;5035312;28;20049;-89
2023/06/16 12:58:35;;;;;;;2.67;0.98;;;;;;;;;;5019264;28;20053;-90
2023/06/16 13:01:01;;;;;;;1.15;0.70;;;;;;;;;;5035610;28;20049;-90
2023/06/16 13:03:27;;;;;;;2.08;0.70;;;;;;;;;;5035329;28;20076;-91
2023/06/16 13:05:53;;;;;;;2.70;0.70;;;;;;;;;;5002848;28;20417;-92
2023/06/16 13:08:20;;;;;;;1.00;0.90;;;;;;;;;;5035281;28;20402;-91
2023/06/16 13:10:46;;;;;;;2.97;0.63;;;;;;;;;;5036144;28;20049;-92
2023/06/16 13:13:12;;;;;;;1.38;0.70;;;;;;;;;;5019736;28;20052;-91
2023/06/16 13:15:38;;;;;;;1.52;0.70;;;;;;;;;;5018516;28;20102;-91
2023/06/16 13:18:05;;;;;;;2.03;0.70;;;;;;;;;;5034510;28;20133;-91
2023/06/16 13:20:31;;;;;;;1.30;0.70;;;;;;;;;;5019339;28;20056;-95
2023/06/16 13:22:57;;;;;;;4.43;0.73;;;;;;;;;;5003257;28;20072;-91
2023/06/16 13:25:23;;;;;;;1.08;1.00;;;;;;;;;;5002860;28;20107;-95
2023/06/16 13:27:49;;;;;;;2.13;0.60;;;;;;;;;;5019466;28;20060;-92
2023/06/16 13:30:16;;;;;;;2.13;0.80;;;;;;;;;;5018334;28;20072;-91
2023/06/16 13:32:42;;;;;;;3.65;0.90;;;;;;;;;;5003003;28;20079;-92
2023/06/16 13:35:08;;;;;;;0.80;0.60;;;;;;;;;;5017972;28;20041;-92
2023/06/16 13:37:37;;;;;;;0.88;0.60;;;;;;;;;;5018743;28;20052;-94
2023/06/16 13:40:03;;;;;;;2.13;0.80;;;;;;;;;;5017808;28;20132;-92
2023/06/16 13:42:29;;;;;;;1.00;0.57;;;;;;;;;;5034730;28;20068;-92
2023/06/16 13:44:56;;;;;;;2.55;0.70;;;;;;;;;;5035236;28;20056;-90
2023/06/16 13:47:22;;;;;;;1.45;0.70;;;;;;;;;;5017994;28;20132;-90
2023/06/16 13:49:48;;;;;;;0.82;0.50;;;;;;;;;;5034369;28;20098;-90
2023/06/16 13:52:14;;;;;;;0.95;0.60;;;;;;;;;;5034914;28;20053;-91
2023/06/16 13:54:43;;;;;;;1.13;0.60;;;;;;;;;;5034340;28;20081;-91
2023/06/16 13:57:10;;;;;;;2.13;0.93;;;;;;;;;;5018188;28;20045;-93
2023/06/16 13:59:36;;;;;;;1.77;0.80;;;;;;;;;;5017567;28;20143;-90
2023/06/16 14:02:03;;;;;;;1.40;0.80;;;;;;;;;;5033782;28;20041;-92
2023/06/16 14:04:29;;;;;;;3.33;0.70;;;;;;;;;;5017737;28;20069;-91
2023/06/16 14:06:56;;;;;;;1.33;0.65;;;;;;;;;;5034190;28;20084;-90
2023/06/16 14:09:22;;;;;;;1.42;0.63;;;;;;;;;;5018594;28;20068;-91
2023/06/16 14:11:48;;;;;;;2.15;0.80;;;;;;;;;;5035743;28;20056;-89
2023/06/16 14:14:14;;;;;;;4.43;1.02;;;;;;;;;;5035105;28;20045;-90
2023/06/16 14:16:40;;;;;;;1.48;0.65;;;;;;;;;;5035133;28;20052;-90
2023/06/16 14:19:10;;;;;;;0.85;0.73;;;;;;;;;;5020148;28;20115;-89
2023/06/16 14:21:36;;;;;;;2.47;0.80;;;;;;;;;;5035577;28;20053;-89
2023/06/16 14:24:02;;;;;;;1.67;0.90;;;;;;;;;;5054145;28;20037;-89
2023/06/16 14:26:28;;;;;;;3.83;0.73;;;;;;;;;;5038889;28;20076;-91
2023/06/16 14:28:56;;;;;;;3.00;0.70;;;;;;;;;;5019220;28;20140;-90
2023/06/16 14:31:23;;;;;;;2.38;0.80;;;;;;;;;;5036994;28;20077;-91
2023/06/16 14:33:49;;;;;;;1.25;0.77;;;;;;;;;;5033941;28;20100;-96
2023/06/16 14:36:16;;;;;;;3.05;0.70;;;;;;;;;;5032770;28;20037;-91
2023/06/16 14:38:48;;;;;;;0.90;0.60;;;;;;;;;;5034246;28;20046;-90
2023/06/16 14:41:14;;;;;;;1.85;0.70;;;;;;;;;;5017170;28;20045;-89